Friday, November 24, 2017, 5:37 AM GMT
Back to Local

CWDQ, La Tuque

Location: , , Canada Lat: 47.417
Local Time: 5:37 AM GMT ( 5:37 GMT) Lon: -72.8
Time Zone: GMT Elev: 554 ft

Show me the last for .
Show Coded

Time T Td Feel RH Dir Speed Gust Alt SLP Vis Weather Sky Remarks
2017-11-24 05:00 24 22 17 89 160° 6 - - 29.75 0 None
2017-11-24 04:00 23 21 16 89 170° 6 - - 29.76 0 None
2017-11-24 03:00 22 22 15 98 160° 6 - - 29.76 0 None
2017-11-24 02:00 22 20 14 91 170° 6 - - 29.78 0 None
2017-11-24 01:00 24 19 16 81 170° 7 - - 29.80 0 None
2017-11-24 00:00 22 19 15 89 160° 5 - - 29.83 0 None
2017-11-23 23:00 22 19 16 88 160° 5 - - 29.84 0 None
2017-11-23 22:00 24 18 18 78 160° 5 - - 29.85 0 None
2017-11-23 21:00 24 17 18 75 160° 5 - - 29.86 0 None
2017-11-23 20:00 22 16 13 78 170° 7 - - 29.87 0 None
2017-11-23 19:00 22 16 14 75 180° 7 - - 29.89 0 None
2017-11-23 18:00 21 14 14 72 180° 6 - - 29.93 0 None
2017-11-23 17:00 20 13 12 73 190° 6 - - 29.95 0 None
2017-11-23 16:00 19 12 11 74 190° 6 - - 29.98 0 1-hr Precip Total: 0.04"
2017-11-23 15:00 19 11 13 72 210° 3 - - 30.03 0 None
2017-11-23 14:00 17 11 - 75 190° 2 - - 30.04 0 None
2017-11-23 13:00 13 10 - 87 170° 2 - - 30.04 0 None
2017-11-23 12:00 12 9 - 88 150° 2 - - 30.04 0 None
2017-11-23 11:00 14 11 - 88 60° 1 - - 30.03 0 None
2017-11-23 10:00 17 12 - 79 320° 2 - - 30.04 0 None
2017-11-23 09:00 18 12 11 78 330° 5 - - 30.05 0 None
2017-11-23 08:00 18 12 11 78 320° 5 - - 30.04 0 None
2017-11-23 07:00 18 11 11 76 320° 5 - - 30.06 0 None
2017-11-23 06:00 17 11 10 75 330° 5 - - 30.05 0 None

Support USWX by starting your Amazon purchase here.